createdAt,value
2018-02-09T00:02:03.859Z,78.57
2018-02-09T00:04:30.653Z,78.17
2018-02-09T00:06:58.027Z,78.18
2018-02-09T00:09:25.698Z,79.53
2018-02-09T00:11:52.441Z,79.99
2018-02-09T00:14:19.260Z,82.14
2018-02-09T00:16:46.057Z,81.88
2018-02-09T00:19:12.945Z,81.91
2018-02-09T00:21:39.719Z,81.92
2018-02-09T00:24:06.529Z,82.21
2018-02-09T00:26:33.292Z,81.45
2018-02-09T00:29:00.028Z,81.76
2018-02-09T00:31:26.804Z,81.09
2018-02-09T00:33:54.312Z,81.19
2018-02-09T00:36:21.138Z,81.24
2018-02-09T00:38:47.953Z,81.11
2018-02-09T00:41:14.769Z,80.80
2018-02-09T00:43:42.321Z,81.51
2018-02-09T00:46:09.646Z,80.99
2018-02-09T00:48:36.467Z,80.44
2018-02-09T00:51:03.271Z,80.39
2018-02-09T00:53:30.033Z,80.80
2018-02-09T00:55:56.845Z,81.70
2018-02-09T00:58:23.623Z,83.05
2018-02-09T01:00:50.397Z,82.22
2018-02-09T01:03:17.200Z,80.39
2018-02-09T01:05:43.961Z,81.12
2018-02-09T01:08:10.727Z,81.29
2018-02-09T01:10:37.550Z,80.69
2018-02-09T01:13:04.364Z,82.37
2018-02-09T01:15:31.913Z,81.60
2018-02-09T01:17:58.750Z,82.55
2018-02-09T01:20:25.523Z,83.68
2018-02-09T01:22:52.291Z,84.54
2018-02-09T01:25:19.101Z,84.97
2018-02-09T01:27:45.889Z,82.70
2018-02-09T01:30:12.704Z,82.29
2018-02-09T01:32:39.475Z,82.87
2018-02-09T01:35:06.275Z,80.93
2018-02-09T01:37:33.047Z,80.31
2018-02-09T01:39:59.811Z,82.72
2018-02-09T01:42:26.588Z,83.82
2018-02-09T01:44:53.383Z,83.12
2018-02-09T01:47:20.161Z,81.42
2018-02-09T01:50:05.757Z,82.61
2018-02-09T01:52:33.297Z,80.39
2018-02-09T01:55:00.836Z,81.77
2018-02-09T01:57:27.634Z,81.21
2018-02-09T01:59:54.439Z,80.83
2018-02-09T02:02:21.983Z,79.72
2018-02-09T02:04:48.774Z,80.40
2018-02-09T02:07:15.570Z,80.13
2018-02-09T02:09:42.331Z,81.18
2018-02-09T02:12:09.120Z,80.07
2018-02-09T02:14:35.980Z,81.38
2018-02-09T02:17:02.752Z,81.09
2018-02-09T02:19:30.267Z,81.87
2018-02-09T02:21:57.052Z,81.68
2018-02-09T02:24:23.871Z,81.42
2018-02-09T02:26:50.629Z,83.37
2018-02-09T02:29:17.376Z,79.98
2018-02-09T02:31:45.776Z,79.74
2018-02-09T02:34:12.546Z,79.12
2018-02-09T02:36:39.311Z,78.80
2018-02-09T02:39:06.100Z,79.19
2018-02-09T02:41:32.875Z,78.66
2018-02-09T02:43:59.708Z,80.96
2018-02-09T02:46:26.456Z,80.88
2018-02-09T02:48:53.221Z,81.98
2018-02-09T02:51:20.056Z,82.09
2018-02-09T02:53:46.897Z,82.79
2018-02-09T02:56:13.735Z,82.99
2018-02-09T02:58:40.507Z,81.76
2018-02-09T03:01:07.312Z,83.91
2018-02-09T03:03:34.143Z,83.82
2018-02-09T03:06:00.939Z,81.56
2018-02-09T03:08:27.701Z,81.03
2018-02-09T03:10:54.571Z,80.00
2018-02-09T03:13:21.330Z,82.04
2018-02-09T03:15:48.145Z,83.45
2018-02-09T03:18:14.913Z,83.44
2018-02-09T03:20:41.707Z,81.91
2018-02-09T03:23:08.474Z,80.62
2018-02-09T03:25:35.257Z,82.43
2018-02-09T03:28:02.765Z,81.14
2018-02-09T03:30:29.559Z,80.41
2018-02-09T03:32:57.075Z,82.41
2018-02-09T03:35:23.842Z,82.40
2018-02-09T03:37:50.602Z,83.96
2018-02-09T03:40:18.139Z,83.86
2018-02-09T03:42:45.664Z,84.57
2018-02-09T03:45:12.505Z,81.88
2018-02-09T03:47:39.258Z,81.15
2018-02-09T03:50:06.112Z,83.51
2018-02-09T03:52:32.908Z,82.49
2018-02-09T03:54:59.669Z,79.70
2018-02-09T03:57:26.464Z,79.64
2018-02-09T03:59:53.219Z,82.81
2018-02-09T04:02:20.012Z,82.82
2018-02-09T04:04:46.788Z,81.19
2018-02-09T04:07:14.272Z,81.18
2018-02-09T04:09:41.036Z,79.80
2018-02-09T04:12:07.826Z,81.53
2018-02-09T04:14:34.595Z,83.60
2018-02-09T04:17:01.344Z,82.09
2018-02-09T04:19:28.123Z,83.11
2018-02-09T04:21:54.880Z,82.79
2018-02-09T04:24:21.659Z,82.20
2018-02-09T04:26:48.440Z,83.35
2018-02-09T04:29:15.196Z,83.52
2018-02-09T04:31:41.974Z,82.69
2018-02-09T04:34:09.470Z,84.43
2018-02-09T04:36:36.218Z,84.07
2018-02-09T04:39:03.128Z,84.04
2018-02-09T04:41:29.982Z,82.24
2018-02-09T04:43:56.720Z,84.57
2018-02-09T04:46:23.470Z,85.53
2018-02-09T04:48:50.294Z,85.14
2018-02-09T04:51:17.090Z,82.19
2018-02-09T04:53:43.872Z,82.50
2018-02-09T04:56:10.668Z,81.63
2018-02-09T04:58:38.248Z,82.56
2018-02-09T05:01:05.017Z,81.22
2018-02-09T05:03:31.836Z,80.14
2018-02-09T05:05:59.390Z,80.17
2018-02-09T05:08:26.146Z,79.92
2018-02-09T05:10:54.935Z,79.81
2018-02-09T05:13:21.722Z,80.87
2018-02-09T05:15:48.574Z,81.53
2018-02-09T05:18:15.379Z,83.19
2018-02-09T05:20:42.142Z,81.97
2018-02-09T05:23:10.661Z,82.24
2018-02-09T05:25:37.717Z,82.57
2018-02-09T05:28:04.564Z,83.99
2018-02-09T05:30:32.132Z,83.66
2018-02-09T05:32:59.630Z,84.46
2018-02-09T05:35:26.401Z,83.48
2018-02-09T05:37:53.156Z,83.83
2018-02-09T05:40:20.010Z,84.97
2018-02-09T05:42:46.824Z,83.45
2018-02-09T05:45:13.585Z,85.80
2018-02-09T05:47:40.348Z,83.00
2018-02-09T05:50:07.130Z,83.86
2018-02-09T05:52:33.878Z,83.72
2018-02-09T05:55:00.637Z,84.40
2018-02-09T05:57:27.459Z,84.80
2018-02-09T05:59:54.205Z,84.05
2018-02-09T06:02:20.949Z,84.49
2018-02-09T06:04:47.827Z,84.58
2018-02-09T06:07:15.368Z,82.71
2018-02-09T06:09:42.113Z,82.80
2018-02-09T06:12:08.860Z,83.25
2018-02-09T06:14:36.354Z,84.15
2018-02-09T06:17:03.094Z,83.61
2018-02-09T06:19:29.828Z,82.91
2018-02-09T06:21:56.604Z,83.10
2018-02-09T06:24:23.384Z,81.97
2018-02-09T06:26:50.883Z,82.34
2018-02-09T06:29:17.643Z,83.41
2018-02-09T06:31:44.378Z,82.25
2018-02-09T06:34:11.128Z,81.81
2018-02-09T06:36:37.874Z,82.31
2018-02-09T06:39:04.923Z,81.88
2018-02-09T06:41:31.693Z,82.03
2018-02-09T06:43:59.206Z,83.26
2018-02-09T06:46:25.966Z,82.14
2018-02-09T06:48:52.728Z,81.61
2018-02-09T06:51:20.267Z,82.16
2018-02-09T06:53:47.006Z,82.35
2018-02-09T06:56:13.769Z,82.38
2018-02-09T06:58:40.485Z,82.94
2018-02-09T07:01:07.222Z,82.18
2018-02-09T07:03:33.970Z,81.61
2018-02-09T07:06:00.724Z,81.44
2018-02-09T07:08:27.517Z,81.31
2018-02-09T07:10:54.247Z,82.08
2018-02-09T07:13:21.008Z,81.54
2018-02-09T07:15:47.768Z,81.41
2018-02-09T07:18:14.558Z,80.65
2018-02-09T07:20:41.321Z,80.89
2018-02-09T07:23:08.066Z,81.41
2018-02-09T07:25:34.822Z,81.20
2018-02-09T07:28:01.555Z,80.92
2018-02-09T07:30:33.539Z,81.83
2018-02-09T07:33:00.289Z,80.64
2018-02-09T07:35:27.074Z,79.65
2018-02-09T07:37:55.039Z,79.61
2018-02-09T07:40:23.566Z,81.33
2018-02-09T07:42:51.005Z,82.15
2018-02-09T07:45:18.682Z,82.41
2018-02-09T07:47:46.209Z,82.11
2018-02-09T07:50:13.292Z,82.30
2018-02-09T07:52:40.198Z,82.03
2018-02-09T07:55:07.371Z,82.48
2018-02-09T07:57:34.656Z,82.29
2018-02-09T08:00:01.788Z,82.11
2018-02-09T08:02:28.839Z,81.96
2018-02-09T08:04:56.410Z,81.70
2018-02-09T08:07:23.759Z,80.67
2018-02-09T08:09:56.028Z,80.57
2018-02-09T08:12:22.941Z,80.68
2018-02-09T08:14:49.924Z,81.69
2018-02-09T08:17:17.325Z,81.07
2018-02-09T08:19:44.556Z,81.19
2018-02-09T08:22:13.545Z,79.91
2018-02-09T08:24:40.531Z,80.63
2018-02-09T08:27:07.476Z,80.70
2018-02-09T08:29:35.438Z,79.49
2018-02-09T08:32:04.362Z,80.13
2018-02-09T08:37:03.626Z,80.71
2018-02-09T08:39:30.685Z,80.83
2018-02-09T08:41:57.977Z,81.60
2018-02-09T08:44:25.002Z,80.66
2018-02-09T08:46:51.953Z,80.59
2018-02-09T08:49:24.867Z,80.92
2018-02-09T08:51:51.740Z,79.55
2018-02-09T08:54:18.686Z,79.62
2018-02-09T08:56:45.594Z,79.21
2018-02-09T08:59:12.601Z,79.65
2018-02-09T09:01:39.552Z,78.85
2018-02-09T09:04:07.290Z,79.19
2018-02-09T09:06:34.195Z,79.38
2018-02-09T09:09:02.050Z,78.83
2018-02-09T09:11:29.141Z,79.03
2018-02-09T09:13:56.060Z,79.65
2018-02-09T09:16:22.959Z,79.71
2018-02-09T09:18:50.687Z,79.04
2018-02-09T09:21:17.595Z,78.84
2018-02-09T09:23:44.591Z,78.38
2018-02-09T09:26:11.597Z,78.12
2018-02-09T09:28:39.346Z,78.12
2018-02-09T09:31:06.597Z,77.70
2018-02-09T09:33:33.610Z,78.83
2018-02-09T09:36:00.665Z,79.33
2018-02-09T09:38:28.395Z,79.60
2018-02-09T09:40:56.084Z,78.00
2018-02-09T09:43:23.800Z,77.81
2018-02-09T09:45:51.852Z,77.05
2018-02-09T09:48:21.017Z,76.32
2018-02-09T09:50:49.025Z,77.31
2018-02-09T09:53:16.068Z,76.79
2018-02-09T09:55:43.093Z,76.36
2018-02-09T09:58:10.422Z,76.06
2018-02-09T10:00:42.714Z,75.66
2018-02-09T10:03:09.819Z,75.65
2018-02-09T10:05:37.171Z,74.96
2018-02-09T10:08:09.752Z,75.78
2018-02-09T10:10:43.576Z,75.14
2018-02-09T22:03:00.076Z,70.39
2018-02-09T22:05:28.449Z,70.14
2018-02-09T22:07:56.554Z,70.46
2018-02-09T22:10:24.504Z,70.51
2018-02-09T22:12:52.852Z,70.67
2018-02-09T23:24:23.749Z,73.14
